Sabahat Telli — TCSQ6 — position and weather

sailwx.info

Track history (hours):
 
Tides and Currents Weather Stations Pressure Air Temp Water Temp Dewpoint Dewpoint Depression Visibility Wind Speed Wind Dir Waves Ship Positions

Sabahat Telli

Last reported at 2015-Jul-30 08:08 UTC. Time now 2015-Aug-01 20:13 UTC.
Position N 44°07' E 031°26'.

Length 99 m; draft 5 m.

Type: Tanker. MMSI: 271000961.

Date/timePositionNaut miles runAvg speedWind from/ knotsBaromVisibWave heightAir tempDewpointWater temp
2015-Jul-30 08:08N 44°07' E 031°26'812.7
2015-Jul-30 07:31N 44°07' E 031°37'3812.7
2015-Jul-30 04:33N 44°09' E 032°29'6813.2
2015-Jul-29 23:22N 44°11' E 034°04'1112.5
2015-Jul-29 22:31N 44°15' E 034°18'1212.4
2015-Jul-29 21:33N 44°20' E 034°33'1312.5
2015-Jul-29 20:33N 44°24' E 034°50'1312.5
2015-Jul-29 19:33N 44°28' E 035°06'1212.6
2015-Jul-29 18:33N 44°32' E 035°23'1312.8
2015-Jul-29 17:33N 44°37' E 035°39'1312.8
2015-Jul-29 16:33N 44°41' E 035°56'1312.7
2015-Jul-29 15:33N 44°46' E 036°13'1211.9
2015-Jul-29 14:33N 44°52' E 036°28'48 2.2
2015-Jul-28 16:27N 45°19' E 037°23'0 0.0
2015-Jul-28 14:08N 45°19' E 037°23'0 0.0
2015-Jul-28 13:29N 45°19' E 037°23'0 0.0
2015-Jul-28 12:28N 45°19' E 037°23'0 0.0
2015-Jul-27 21:28N 45°19' E 037°23'0 0.0
2015-Jul-27 20:33N 45°19' E 037°23'0 0.0
2015-Jul-27 15:13N 45°19' E 037°23'0 0.0
2015-Jul-27 14:28N 45°19' E 037°23'  
2015-Jul-25 10:08N 45°08' E 036°30'712.2
2015-Jul-25 09:33N 45°01' E 036°30'1211.9
2015-Jul-25 08:33N 44°49' E 036°29'1212.5
2015-Jul-25 07:33N 44°43' E 036°14'1312.5
2015-Jul-25 06:33N 44°36' E 035°59'1312.6
2015-Jul-25 05:31N 44°29' E 035°44'1212.7
2015-Jul-25 04:33N 44°22' E 035°29'35011.7
2015-Jul-23 22:30N 41°00' E 028°60'6 5.5
2015-Jul-23 21:27N 40°58' E 028°53'0 0.2
2015-Jul-23 20:23N 40°58' E 028°53'0 0.0
2015-Jul-23 18:29N 40°58' E 028°53'0 0.0
2015-Jul-23 17:28N 40°58' E 028°53'0 0.0
2015-Jul-23 16:28N 40°58' E 028°53'0 0.0
2015-Jul-23 15:33N 40°58' E 028°53'0 0.0
2015-Jul-23 14:33N 40°58' E 028°53'0 0.0
2015-Jul-23 13:32N 40°58' E 028°53'0 0.0
2015-Jul-23 12:08N 40°58' E 028°53'0 0.0
2015-Jul-23 11:26N 40°58' E 028°53'0 0.0
2015-Jul-23 10:31N 40°58' E 028°53'0 0.0
2015-Jul-23 09:25N 40°58' E 028°53'0 0.0
2015-Jul-23 08:18N 40°58' E 028°53'0 0.0
2015-Jul-23 01:33N 40°58' E 028°53'0 0.0
2015-Jul-22 22:32N 40°58' E 028°53'0 0.0
2015-Jul-22 21:32N 40°58' E 028°53'0 0.0
2015-Jul-22 20:31N 40°58' E 028°53'0 0.0
2015-Jul-22 19:31N 40°58' E 028°53'0 0.0
2015-Jul-22 18:18N 40°58' E 028°53'0 0.0
2015-Jul-22 17:30N 40°58' E 028°53'0 0.0
2015-Jul-22 16:29N 40°58' E 028°53'3 3.5
2015-Jul-22 15:33N 40°56' E 028°57'1313.0
2015-Jul-22 14:32N 40°48' E 029°10'1412.7
2015-Jul-22 13:24N 40°45' E 029°29'3 0.1
2015-Jul-21 03:32N 40°45' E 029°33'9 9.3
2015-Jul-21 02:33N 40°44' E 029°21'8 7.9
2015-Jul-21 01:33N 40°47' E 029°11'1111.0
2015-Jul-21 00:33N 40°51' E 028°58'7 3.5
2015-Jul-20 22:28N 40°57' E 028°53'4 3.8
2015-Jul-20 21:30N 40°58' E 028°58'1211.6
2015-Jul-20 20:31N 41°08' E 029°04'  
Track history (hours):
 
Tides and Currents Weather Stations Pressure Air Temp Water Temp Dewpoint Dewpoint Depression Visibility Wind Speed Wind Dir Waves Ship Positions

Sabahat Telli

Last reported at 2015-Jul-30 08:08 UTC. Time now 2015-Aug-01 20:13 UTC.
Position N 44°07' E 031°26'.

Length 99 m; draft 5 m.

Type: Tanker. MMSI: 271000961.

Date/timePositionNaut miles runAvg speedWind from/ knotsBaromVisibWave heightAir tempDewpointWater temp
2015-Jul-30 08:08N 44°07' E 031°26'812.7
2015-Jul-30 07:31N 44°07' E 031°37'3812.7
2015-Jul-30 04:33N 44°09' E 032°29'6813.2
2015-Jul-29 23:22N 44°11' E 034°04'1112.5
2015-Jul-29 22:31N 44°15' E 034°18'1212.4
2015-Jul-29 21:33N 44°20' E 034°33'1312.5
2015-Jul-29 20:33N 44°24' E 034°50'1312.5
2015-Jul-29 19:33N 44°28' E 035°06'1212.6
2015-Jul-29 18:33N 44°32' E 035°23'1312.8
2015-Jul-29 17:33N 44°37' E 035°39'1312.8
2015-Jul-29 16:33N 44°41' E 035°56'1312.7
2015-Jul-29 15:33N 44°46' E 036°13'1211.9
2015-Jul-29 14:33N 44°52' E 036°28'48 2.2
2015-Jul-28 16:27N 45°19' E 037°23'0 0.0
2015-Jul-28 14:08N 45°19' E 037°23'0 0.0
2015-Jul-28 13:29N 45°19' E 037°23'0 0.0
2015-Jul-28 12:28N 45°19' E 037°23'0 0.0
2015-Jul-27 21:28N 45°19' E 037°23'0 0.0
2015-Jul-27 20:33N 45°19' E 037°23'0 0.0
2015-Jul-27 15:13N 45°19' E 037°23'0 0.0
2015-Jul-27 14:28N 45°19' E 037°23'  
2015-Jul-25 10:08N 45°08' E 036°30'712.2
2015-Jul-25 09:33N 45°01' E 036°30'1211.9
2015-Jul-25 08:33N 44°49' E 036°29'1212.5
2015-Jul-25 07:33N 44°43' E 036°14'1312.5
2015-Jul-25 06:33N 44°36' E 035°59'1312.6
2015-Jul-25 05:31N 44°29' E 035°44'1212.7
2015-Jul-25 04:33N 44°22' E 035°29'35011.7
2015-Jul-23 22:30N 41°00' E 028°60'6 5.5
2015-Jul-23 21:27N 40°58' E 028°53'0 0.2
2015-Jul-23 20:23N 40°58' E 028°53'0 0.0
2015-Jul-23 18:29N 40°58' E 028°53'0 0.0
2015-Jul-23 17:28N 40°58' E 028°53'0 0.0
2015-Jul-23 16:28N 40°58' E 028°53'0 0.0
2015-Jul-23 15:33N 40°58' E 028°53'0 0.0
2015-Jul-23 14:33N 40°58' E 028°53'0 0.0
2015-Jul-23 13:32N 40°58' E 028°53'0 0.0
2015-Jul-23 12:08N 40°58' E 028°53'0 0.0
2015-Jul-23 11:26N 40°58' E 028°53'0 0.0
2015-Jul-23 10:31N 40°58' E 028°53'0 0.0
2015-Jul-23 09:25N 40°58' E 028°53'0 0.0
2015-Jul-23 08:18N 40°58' E 028°53'0 0.0
2015-Jul-23 01:33N 40°58' E 028°53'0 0.0
2015-Jul-22 22:32N 40°58' E 028°53'0 0.0
2015-Jul-22 21:32N 40°58' E 028°53'0 0.0
2015-Jul-22 20:31N 40°58' E 028°53'0 0.0
2015-Jul-22 19:31N 40°58' E 028°53'0 0.0
2015-Jul-22 18:18N 40°58' E 028°53'0 0.0
2015-Jul-22 17:30N 40°58' E 028°53'0 0.0
2015-Jul-22 16:29N 40°58' E 028°53'3 3.5
2015-Jul-22 15:33N 40°56' E 028°57'1313.0
2015-Jul-22 14:32N 40°48' E 029°10'1412.7
2015-Jul-22 13:24N 40°45' E 029°29'3 0.1
2015-Jul-21 03:32N 40°45' E 029°33'9 9.3
2015-Jul-21 02:33N 40°44' E 029°21'8 7.9
2015-Jul-21 01:33N 40°47' E 029°11'1111.0
2015-Jul-21 00:33N 40°51' E 028°58'7 3.5
2015-Jul-20 22:28N 40°57' E 028°53'4 3.8
2015-Jul-20 21:30N 40°58' E 028°58'1211.6
2015-Jul-20 20:31N 41°08' E 029°04'  

Dump ship's entire track history